Hopedale, IL (61747)

5:09 PM CST on February 07, 2016 (GMT -0600)
APRSWXNET | | Change Station
CLOSE
Current Station
Personal Weather Station
Location: Delavan, IL
Elevation: 580 ft
Nearby Weather Stations

Elev 580 ft 40.36 °N, 89.54 °W | Updated 26 minutes ago

Partly Cloudy
Partly Cloudy
46 °F
Feels Like 46 °F
N
1
Wind Variable Wind from NNE
Gusts 2.0 mph

Today
High -- | Low -- °F
--% Chance of Precip.
Yesterday
High -- | Low -- °F
Precip. -- in
Pressure 29.84 in
Visibility 10.0 miles
Clouds Scattered Clouds 4700 ft
Scattered Clouds 5500 ft
Windchill 46 °F
Dew Point 32 °F
Humidity 59%
Rainfall in
Snow Depth Not available.
7:01 AM 5:22 PM
Waning Crescent, 1% visible
METAR KAAA 072255Z AUTO 00000KT 10SM SCT047 SCT055 08/01 A2984 RMK AO2 T00770008
Pressure 29.84 in
Visibility 10.0 miles
Clouds Scattered Clouds 4700 ft
Scattered Clouds 5500 ft
Windchill 46 °F
Dew Point 32 °F
Humidity 59%
Rainfall in
Snow Depth Not available.
7:01 AM 5:22 PM
Waning Crescent, 1% visible
METAR KAAA 072255Z AUTO 00000KT 10SM SCT047 SCT055 08/01 A2984 RMK AO2 T00770008

10-Day Weather Forecast

Almanac

Astronomy

Feb. 07, 2016 Rise Set
Actual Time
Civil Twilight
Nautical Twilight
Astronomical Twilight
Moon
Length of Visible Light
Length of Day
Tomorrow will be .
, % of the Moon is Illuminated

Today's Extremes

State Highs State Lows

Community

WunderPhotos

Upload Photos

1,891,325 photos uploaded!

WunderBlog® & News

Nearby

Air Quality

  Air Quality AQ Index Pollutant
Not available.

Snow Depth

Station Depth Elevation

Earthquake Activity

City Distance Mag. Time & Date
Minimum magnitude displayed is 2.5.

Coastal Water Temperatures

Place Temperature

Stations

Nearby Weather Stations

Station Location Temp. Windchill Dew Point Humidity Wind Precip. Elev Updated Type
                   

Watches & Warnings

There are currently no watches in effect.